Morganton, GA

12:53 AM EDT on September 05, 2015 (GMT -0400)
Blue Ridge, GA - Mountain Hideaway | | Change Station
CLOSE
Current Station
Personal Weather Station
Location: Blue Ridge, GA
Elevation: 1870 ft
Nearby Weather Stations

Elev 1870 ft 34.86 °N, 84.34 °W | Updated 2 minutes ago

Clear
Clear
68.9 °F
Feels Like 68.9 °F
N
0.0
Wind Variable Wind from West

Today
High -- | Low -- °F
--% Chance of Precip.
Yesterday
High -- | Low -- °F
Precip. -- in
7:12 AM 7:58 PM
Waning Gibbous, 52% visible
Pressure 30.13 in
Visibility 2.5 miles
Clouds
Dew Point 69 °F
Humidity 99%
Rainfall 0.00 in
Snow Depth Not available.
UV Not available.
Pollen 9.70 out of 12
Air Quality Not available.
Flu Activity Not available.
METAR KDZJ 050435Z AUTO 00000KT 2 1/2SM HZ 20/15 A3013 RMK AO2 T01950152
Pressure 30.13 in
Visibility 2.5 miles
Clouds
Dew Point 69 °F
Humidity 99%
Rainfall 0.00 in
Snow Depth Not available.
UV Not available.
Pollen 9.70 out of 12
Air Quality Not available.
Flu Activity Not available.
METAR KDZJ 050435Z AUTO 00000KT 2 1/2SM HZ 20/15 A3013 RMK AO2 T01950152

10-Day Weather Forecast

×

Almanac

Astronomy

Sep. 05, 2015 Rise Set
Actual Time
Civil Twilight
Nautical Twilight
Astronomical Twilight
Moon
Length of Visible Light
Length of Day
Tomorrow will be .
, % of the Moon is Illuminated

Today's Extremes

State Highs State Lows

Community

WunderPhotos

Upload Photos

1,852,426 photos uploaded!

WunderBlogs® & News

Nearby

Air Quality

  Air Quality AQ Index Pollutant
Not available.

Snow Depth

Station Depth Elevation

Earthquake Activity

City Distance Mag. Time & Date
Minimum magnitude displayed is 2.5.

Coastal Water Temperatures

Place Temperature

Stations

Nearby Weather Stations

Station Location Temp. Windchill Dew Point Humidity Wind Precip. Elev Updated Type